createdAt,value
2024-04-26T00:01:13.266Z,17
2024-04-26T00:03:13.363Z,20
2024-04-26T00:05:13.384Z,20
2024-04-26T00:07:13.475Z,19
2024-04-26T00:09:13.668Z,19
2024-04-26T00:11:13.718Z,19
2024-04-26T00:13:13.785Z,21
2024-04-26T00:15:13.900Z,22
2024-04-26T00:17:14.016Z,21
2024-04-26T00:19:14.206Z,20
2024-04-26T00:23:14.339Z,19
2024-04-26T00:25:14.360Z,23
2024-04-26T00:27:14.507Z,20
2024-04-26T00:29:14.563Z,20
2024-04-26T00:31:14.677Z,20
2024-04-26T00:33:14.922Z,23
2024-04-26T00:35:14.863Z,28
2024-04-26T00:37:14.951Z,22
2024-04-26T00:39:15.063Z,21
2024-04-26T00:41:15.139Z,20
2024-04-26T00:43:15.235Z,24
2024-04-26T00:45:15.327Z,23
2024-04-26T00:47:15.500Z,23
2024-04-26T00:49:15.553Z,24
2024-04-26T00:51:15.640Z,18
2024-04-26T00:53:15.723Z,19
2024-04-26T00:55:15.805Z,19
2024-04-26T00:57:15.914Z,21
2024-04-26T00:59:15.996Z,15
2024-04-26T01:01:16.168Z,13
2024-04-26T01:03:16.203Z,13
2024-04-26T01:07:16.399Z,14
2024-04-26T01:09:16.471Z,13
2024-04-26T01:11:16.656Z,14
2024-04-26T01:13:16.691Z,12
2024-04-26T01:15:16.787Z,11
2024-04-26T01:17:16.894Z,11
2024-04-26T01:19:17.058Z,10
2024-04-26T01:21:17.087Z,10
2024-04-26T01:23:17.183Z,9
2024-04-26T01:25:17.276Z,10
2024-04-26T01:27:17.392Z,9
2024-04-26T01:29:17.473Z,10
2024-04-26T01:31:17.582Z,11
2024-04-26T01:33:17.841Z,10
2024-04-26T01:35:17.769Z,9
2024-04-26T01:37:17.882Z,12
2024-04-26T01:39:17.972Z,11
2024-04-26T01:41:18.057Z,12
2024-04-26T01:43:18.131Z,12
2024-04-26T01:45:18.229Z,13
2024-04-26T01:47:18.330Z,11
2024-04-26T01:49:18.421Z,12
2024-04-26T01:51:18.531Z,11
2024-04-26T01:53:18.615Z,13
2024-04-26T01:55:18.765Z,12
2024-04-26T01:57:18.819Z,14
2024-04-26T01:59:18.914Z,12
2024-04-26T02:01:18.986Z,14
2024-04-26T02:03:19.182Z,14
2024-04-26T02:05:19.212Z,13
2024-04-26T02:07:19.270Z,11
2024-04-26T02:09:19.372Z,13
2024-04-26T02:11:19.473Z,14
2024-04-26T02:13:19.530Z,12
2024-04-26T02:15:19.622Z,10
2024-04-26T02:17:19.780Z,12
2024-04-26T02:19:19.792Z,13
2024-04-26T02:21:19.886Z,12
2024-04-26T02:23:19.961Z,16
2024-04-26T02:25:20.059Z,13
2024-04-26T02:27:20.163Z,12
2024-04-26T02:29:20.234Z,12
2024-04-26T02:31:20.331Z,13
2024-04-26T02:33:20.663Z,15
2024-04-26T02:35:20.555Z,12
2024-04-26T02:37:20.698Z,13
2024-04-26T02:39:20.723Z,13
2024-04-26T02:41:20.764Z,11
2024-04-26T02:43:20.867Z,11
2024-04-26T02:45:20.985Z,14
2024-04-26T02:47:21.146Z,12
2024-04-26T02:49:21.160Z,12
2024-04-26T02:51:21.244Z,10
2024-04-26T02:53:21.335Z,11
2024-04-26T02:55:21.416Z,11
2024-04-26T02:57:21.537Z,12
2024-04-26T03:01:21.814Z,12
2024-04-26T03:03:21.859Z,13
2024-04-26T03:05:22.056Z,14
2024-04-26T03:07:21.951Z,14
2024-04-26T03:09:22.127Z,22
2024-04-26T03:11:22.255Z,17
2024-04-26T03:13:22.228Z,19
2024-04-26T03:17:22.710Z,18
2024-04-26T03:19:22.614Z,19
2024-04-26T03:21:22.596Z,20
2024-04-26T03:23:22.893Z,18
2024-04-26T03:25:22.763Z,16
2024-04-26T03:27:22.874Z,16
2024-04-26T03:29:23.067Z,16
2024-04-26T03:31:23.205Z,15
2024-04-26T03:33:23.311Z,15
2024-04-26T03:35:23.309Z,15
2024-04-26T03:37:23.317Z,14
2024-04-26T03:39:23.438Z,14
2024-04-26T03:41:23.545Z,14
2024-04-26T03:43:23.608Z,12
2024-04-26T03:45:23.736Z,14
2024-04-26T03:47:23.997Z,16
2024-04-26T03:49:24.429Z,15
2024-04-26T03:51:23.942Z,15
2024-04-26T03:53:24.048Z,14
2024-04-26T03:55:24.112Z,15
2024-04-26T03:57:24.211Z,13
2024-04-26T03:59:24.352Z,14
2024-04-26T04:01:24.407Z,16
2024-04-26T04:03:24.724Z,16
2024-04-26T04:05:24.620Z,19
2024-04-26T04:07:24.689Z,18
2024-04-26T04:09:24.738Z,19
2024-04-26T04:11:24.943Z,20
2024-04-26T04:13:24.912Z,17
2024-04-26T04:15:25.004Z,19
2024-04-26T04:17:25.326Z,18
2024-04-26T04:19:25.286Z,21
2024-04-26T04:21:25.276Z,22
2024-04-26T04:23:25.406Z,21
2024-04-26T04:25:25.454Z,26
2024-04-26T04:27:25.555Z,26
2024-04-26T04:29:25.786Z,24
2024-04-26T04:31:25.726Z,22
2024-04-26T04:33:25.948Z,21
2024-04-26T04:35:25.964Z,17
2024-04-26T04:37:56.031Z,20
2024-04-26T04:39:56.139Z,19
2024-04-26T04:41:56.321Z,19
2024-04-26T04:43:56.389Z,23
2024-04-26T04:45:56.510Z,24
2024-04-26T04:47:56.741Z,23
2024-04-26T04:49:56.771Z,24
2024-04-26T04:51:56.864Z,22
2024-04-26T04:53:57.067Z,21
2024-04-26T04:55:57.113Z,23
2024-04-26T04:57:57.220Z,20
2024-04-26T04:59:57.379Z,19
2024-04-26T05:01:57.451Z,20
2024-04-26T05:03:57.671Z,18
2024-04-26T05:05:57.779Z,16
2024-04-26T05:07:57.808Z,17
2024-04-26T05:09:57.891Z,18
2024-04-26T05:13:58.130Z,21
2024-04-26T05:15:58.237Z,22
2024-04-26T05:17:58.643Z,21
2024-04-26T05:19:58.468Z,18
2024-04-26T05:21:58.608Z,20
2024-04-26T05:23:58.770Z,21
2024-04-26T05:25:58.840Z,23
2024-04-26T05:27:58.919Z,21
2024-04-26T05:29:59.106Z,19
2024-04-26T05:31:59.155Z,21
2024-04-26T05:33:59.334Z,20
2024-04-26T05:35:59.404Z,21
2024-04-26T05:37:59.460Z,19
2024-04-26T05:39:59.578Z,19
2024-04-26T05:41:59.775Z,17
2024-04-26T05:43:59.821Z,20
2024-04-26T05:45:59.942Z,20
2024-04-26T05:48:00.242Z,19
2024-04-26T05:50:00.236Z,17
2024-04-26T05:52:00.262Z,20
2024-04-26T05:54:00.513Z,19
2024-04-26T05:58:00.570Z,18
2024-04-26T06:00:00.988Z,17
2024-04-26T06:02:00.820Z,17
2024-04-26T06:04:01.088Z,15
2024-04-26T06:06:01.104Z,18
2024-04-26T06:08:01.158Z,15
2024-04-26T06:10:01.287Z,13
2024-04-26T06:12:01.402Z,15
2024-04-26T06:14:01.473Z,14
2024-04-26T06:16:01.583Z,12
2024-04-26T06:18:01.844Z,13
2024-04-26T06:20:01.808Z,14
2024-04-26T06:22:01.909Z,15
2024-04-26T06:26:02.127Z,15
2024-04-26T06:28:02.255Z,13
2024-04-26T06:30:02.508Z,13
2024-04-26T06:32:02.538Z,15
2024-04-26T06:34:02.666Z,15
2024-04-26T06:36:02.749Z,15
2024-04-26T06:38:02.791Z,14
2024-04-26T06:40:03.009Z,15
2024-04-26T06:42:03.015Z,12
2024-04-26T06:44:12.188Z,13
2024-04-26T06:46:03.163Z,12
2024-04-26T06:48:03.548Z,11
2024-04-26T06:50:03.508Z,14
2024-04-26T06:52:03.496Z,40
2024-04-26T06:54:03.674Z,51
2024-04-26T06:56:03.735Z,27
2024-04-26T06:58:03.848Z,22
2024-04-26T07:00:04.065Z,18
2024-04-26T07:04:04.540Z,15
2024-04-26T07:06:04.311Z,14
2024-04-26T07:08:04.382Z,14
2024-04-26T07:10:04.534Z,15
2024-04-26T07:12:04.653Z,12
2024-04-26T07:14:04.694Z,15
2024-04-26T07:16:11.190Z,12
2024-04-26T07:18:05.119Z,14
2024-04-26T07:20:05.112Z,12
2024-04-26T07:22:05.118Z,11
2024-04-26T07:24:05.524Z,11
2024-04-26T07:26:05.357Z,12
2024-04-26T07:28:05.424Z,12
2024-04-26T07:30:05.555Z,11
2024-04-26T07:32:05.704Z,11
2024-04-26T07:34:05.972Z,12
2024-04-26T07:36:05.873Z,11
2024-04-26T07:38:05.915Z,12
2024-04-26T07:40:06.051Z,9
2024-04-26T07:42:06.506Z,10
2024-04-26T07:46:06.404Z,13
2024-04-26T07:48:06.675Z,10
2024-04-26T07:50:06.619Z,11
2024-04-26T07:52:06.654Z,10
2024-04-26T07:54:06.790Z,12
2024-04-26T07:56:06.862Z,11
2024-04-26T07:58:06.929Z,10
2024-04-26T08:00:07.159Z,9
2024-04-26T08:02:07.155Z,10
2024-04-26T08:04:07.581Z,9
2024-04-26T08:06:07.497Z,11
2024-04-26T08:08:07.503Z,11
2024-04-26T08:10:07.552Z,10
2024-04-26T08:12:07.882Z,10
2024-04-26T08:14:07.752Z,12
2024-04-26T08:16:07.865Z,12
2024-04-26T08:18:08.089Z,12
2024-04-26T08:20:08.047Z,13
2024-04-26T08:22:08.138Z,11
2024-04-26T08:24:08.427Z,13
2024-04-26T08:26:08.358Z,12
2024-04-26T08:28:08.439Z,10
2024-04-26T08:30:08.802Z,10
2024-04-26T08:32:08.681Z,12
2024-04-26T08:34:08.930Z,11
2024-04-26T08:36:09.123Z,12
2024-04-26T08:38:08.904Z,11
2024-04-26T08:40:09.097Z,13
2024-04-26T08:42:09.230Z,12
2024-04-26T08:44:09.192Z,11
2024-04-26T08:46:09.296Z,11
2024-04-26T08:48:09.559Z,11
2024-04-26T08:50:09.470Z,11
2024-04-26T08:52:09.587Z,11
2024-04-26T08:54:09.762Z,14
2024-04-26T08:56:09.733Z,13
2024-04-26T08:58:09.818Z,10
2024-04-26T09:00:09.970Z,11
2024-04-26T09:02:10.074Z,10
2024-04-26T09:04:10.360Z,10
2024-04-26T09:06:10.251Z,9
2024-04-26T09:08:10.278Z,12
2024-04-26T09:10:10.415Z,9
2024-04-26T09:12:10.550Z,7
2024-04-26T09:14:10.564Z,11
2024-04-26T09:16:10.724Z,9
2024-04-26T09:18:11.029Z,9
2024-04-26T09:20:40.901Z,9
2024-04-26T09:22:40.933Z,8
2024-04-26T09:24:41.054Z,7
2024-04-26T09:26:43.124Z,7
2024-04-26T09:28:41.303Z,6
2024-04-26T09:30:41.408Z,6
2024-04-26T09:32:50.313Z,6
2024-04-26T09:34:41.981Z,5
2024-04-26T09:36:41.846Z,6
2024-04-26T09:38:41.879Z,6
2024-04-26T09:40:41.975Z,5
2024-04-26T09:42:42.176Z,4
2024-04-26T09:44:42.201Z,4
2024-04-26T09:46:42.372Z,5
2024-04-26T09:48:42.699Z,5
2024-04-26T09:50:42.559Z,4
2024-04-26T09:52:42.571Z,6
2024-04-26T09:54:42.683Z,4
2024-04-26T09:56:42.820Z,4
2024-04-26T09:58:42.963Z,6
2024-04-26T10:00:43.100Z,6
2024-04-26T10:02:43.193Z,5
2024-04-26T10:04:43.350Z,5
2024-04-26T10:08:43.458Z,4
2024-04-26T10:10:43.593Z,5
2024-04-26T10:12:43.739Z,4
2024-04-26T10:14:43.802Z,4
2024-04-26T10:16:43.890Z,5
2024-04-26T10:18:44.274Z,3
2024-04-26T10:20:44.165Z,4
2024-04-26T10:22:44.159Z,3
2024-04-26T10:24:44.242Z,3
2024-04-26T10:26:44.384Z,5
2024-04-26T10:28:44.425Z,3
2024-04-26T10:30:44.526Z,3
2024-04-26T10:32:44.848Z,3
2024-04-26T10:34:44.821Z,2
2024-04-26T10:36:44.810Z,3
2024-04-26T10:38:44.947Z,2
2024-04-26T10:40:45.030Z,2
2024-04-26T10:42:45.110Z,1
2024-04-26T10:48:45.542Z,1
2024-04-26T10:50:45.490Z,2
2024-04-26T10:52:45.575Z,1
2024-04-26T10:56:45.783Z,1
2024-04-26T10:58:45.864Z,2
2024-04-26T11:00:45.934Z,1
2024-04-26T11:06:46.276Z,2
2024-04-26T11:08:46.332Z,2
2024-04-26T11:10:46.391Z,2
2024-04-26T11:14:46.674Z,1
2024-04-26T11:16:46.658Z,2
2024-04-26T11:18:46.850Z,2
2024-04-26T11:20:46.894Z,2
2024-04-26T11:23:16.947Z,2
2024-04-26T11:25:17.152Z,2
2024-04-26T11:27:17.200Z,1
2024-04-26T11:29:17.289Z,2
2024-04-26T11:31:17.413Z,2
2024-04-26T11:33:22.859Z,2
2024-04-26T11:35:17.718Z,3
2024-04-26T11:37:17.850Z,3
2024-04-26T11:39:17.882Z,2
2024-04-26T11:41:17.975Z,3
2024-04-26T11:43:18.212Z,2
2024-04-26T11:45:18.386Z,3
2024-04-26T11:47:18.297Z,2
2024-04-26T11:49:18.585Z,1
2024-04-26T11:51:18.609Z,2
2024-04-26T11:53:18.615Z,2
2024-04-26T11:55:18.724Z,2
2024-04-26T11:57:18.885Z,2
2024-04-26T11:59:18.946Z,2
2024-04-26T12:01:19.107Z,2
2024-04-26T12:03:19.644Z,2
2024-04-26T12:05:19.367Z,2
2024-04-26T12:11:19.722Z,2
2024-04-26T12:13:19.720Z,2
2024-04-26T12:15:20.225Z,2
2024-04-26T12:17:19.966Z,1
2024-04-26T12:19:20.168Z,1
2024-04-26T12:21:20.219Z,2
2024-04-26T12:23:20.191Z,2
2024-04-26T12:25:20.256Z,2
2024-04-26T12:27:20.558Z,1
2024-04-26T12:29:20.450Z,2
2024-04-26T12:31:20.632Z,2
2024-04-26T12:33:20.800Z,2
2024-04-26T12:35:20.733Z,3
2024-04-26T12:37:20.871Z,2
2024-04-26T12:39:20.999Z,2
2024-04-26T12:41:21.039Z,3
2024-04-26T12:43:21.116Z,2
2024-04-26T12:45:21.295Z,3
2024-04-26T12:47:21.381Z,2
2024-04-26T12:49:21.559Z,3
2024-04-26T12:51:21.490Z,2
2024-04-26T12:53:21.560Z,3
2024-04-26T12:55:21.693Z,3
2024-04-26T12:57:21.829Z,2
2024-04-26T12:59:21.836Z,2
2024-04-26T13:01:21.969Z,2
2024-04-26T13:03:22.154Z,2
2024-04-26T13:05:22.185Z,3
2024-04-26T13:07:52.236Z,3
2024-04-26T13:09:52.363Z,2
2024-04-26T13:11:52.606Z,2
2024-04-26T13:13:52.593Z,2
2024-04-26T13:15:52.700Z,3
2024-04-26T13:17:52.962Z,2
2024-04-26T13:19:53.128Z,2
2024-04-26T13:21:53.026Z,2
2024-04-26T13:23:53.194Z,2
2024-04-26T13:25:53.245Z,11
2024-04-26T13:27:53.378Z,3
2024-04-26T13:29:53.509Z,3
2024-04-26T13:31:53.644Z,2
2024-04-26T13:35:53.914Z,2
2024-04-26T13:37:53.964Z,2
2024-04-26T13:39:54.076Z,2
2024-04-26T13:41:54.256Z,2
2024-04-26T13:43:54.256Z,3
2024-04-26T13:45:54.370Z,2
2024-04-26T13:47:54.596Z,1
2024-04-26T13:49:54.742Z,1
2024-04-26T13:51:54.661Z,2
2024-04-26T13:53:55.219Z,2
2024-04-26T13:55:54.862Z,2
2024-04-26T13:57:54.975Z,3
2024-04-26T13:59:55.075Z,2
2024-04-26T14:01:55.190Z,2
2024-04-26T14:03:55.849Z,2
2024-04-26T14:05:55.506Z,1
2024-04-26T14:07:55.473Z,2
2024-04-26T14:09:57.935Z,2
2024-04-26T14:13:55.755Z,2
2024-04-26T14:15:55.846Z,3
2024-04-26T14:17:56.181Z,3
2024-04-26T14:22:00.979Z,2
2024-04-26T14:23:56.269Z,2
2024-04-26T14:25:56.325Z,2
2024-04-26T14:27:56.419Z,2
2024-04-26T14:29:56.591Z,3
2024-04-26T14:31:56.629Z,3
2024-04-26T14:33:56.679Z,2
2024-04-26T14:35:56.777Z,3
2024-04-26T14:37:56.947Z,2
2024-04-26T14:39:57.012Z,2
2024-04-26T14:41:57.058Z,2
2024-04-26T14:43:57.147Z,3
2024-04-26T14:45:57.237Z,2
2024-04-26T14:47:57.367Z,3
2024-04-26T14:50:27.472Z,2
2024-04-26T14:52:27.650Z,3
2024-04-26T14:54:27.739Z,3
2024-04-26T14:56:27.818Z,4
2024-04-26T14:58:27.975Z,3
2024-04-26T15:02:28.179Z,5
2024-04-26T15:04:28.383Z,4
2024-04-26T15:06:28.398Z,4
2024-04-26T15:08:28.501Z,4
2024-04-26T15:10:28.650Z,4
2024-04-26T15:12:28.737Z,2
2024-04-26T15:14:28.847Z,2
2024-04-26T15:16:29.003Z,4
2024-04-26T15:18:29.144Z,3
2024-04-26T15:20:29.167Z,2
2024-04-26T15:22:29.309Z,3
2024-04-26T15:26:29.480Z,3
2024-04-26T15:28:29.635Z,2
2024-04-26T15:30:29.697Z,3
2024-04-26T15:32:29.863Z,2
2024-04-26T15:34:29.928Z,2
2024-04-26T15:36:30.004Z,5
2024-04-26T15:38:30.092Z,2
2024-04-26T15:40:30.219Z,3
2024-04-26T15:42:30.298Z,3
2024-04-26T15:44:30.407Z,3
2024-04-26T15:46:30.580Z,2
2024-04-26T15:48:30.613Z,2
2024-04-26T15:52:30.848Z,3
2024-04-26T15:54:30.918Z,3
2024-04-26T15:56:31.048Z,3
2024-04-26T15:58:31.120Z,2
2024-04-26T16:00:31.184Z,3
2024-04-26T16:02:31.301Z,3
2024-04-26T16:04:31.463Z,2
2024-04-26T16:06:31.502Z,2
2024-04-26T16:08:32.271Z,3
2024-04-26T16:10:31.707Z,3
2024-04-26T16:12:31.801Z,2
2024-04-26T16:14:31.869Z,2
2024-04-26T16:16:32.026Z,2
2024-04-26T16:18:32.063Z,7
2024-04-26T16:20:32.142Z,11
2024-04-26T16:22:32.252Z,7
2024-04-26T16:24:32.312Z,8
2024-04-26T16:26:32.448Z,6
2024-04-26T16:28:32.520Z,6
2024-04-26T16:30:32.631Z,8
2024-04-26T16:32:32.752Z,8
2024-04-26T16:34:32.812Z,6
2024-04-26T16:36:32.871Z,8
2024-04-26T16:38:32.970Z,5
2024-04-26T16:40:33.055Z,7
2024-04-26T16:42:33.142Z,12
2024-04-26T16:44:33.246Z,10
2024-04-26T16:46:33.344Z,21
2024-04-26T16:48:33.399Z,10
2024-04-26T16:51:03.547Z,16
2024-04-26T16:53:03.805Z,19
2024-04-26T16:55:03.762Z,20
2024-04-26T16:57:03.894Z,15
2024-04-26T16:59:03.998Z,13
2024-04-26T17:01:04.186Z,13
2024-04-26T17:03:04.438Z,15
2024-04-26T17:05:04.315Z,12
2024-04-26T17:07:04.433Z,13
2024-04-26T17:09:04.563Z,22
2024-04-26T17:11:04.741Z,15
2024-04-26T17:13:04.748Z,19
2024-04-26T17:15:04.888Z,24
2024-04-26T17:17:05.001Z,19
2024-04-26T17:19:05.095Z,23
2024-04-26T17:21:05.205Z,16
2024-04-26T17:23:05.327Z,18
2024-04-26T17:25:05.445Z,15
2024-04-26T17:27:05.542Z,18
2024-04-26T17:29:05.749Z,15
2024-04-26T17:31:05.730Z,12
2024-04-26T17:33:05.947Z,12
2024-04-26T17:35:06.050Z,11
2024-04-26T17:37:06.041Z,10
2024-04-26T17:39:06.161Z,11
2024-04-26T17:41:06.328Z,14
2024-04-26T17:43:06.385Z,12
2024-04-26T17:45:06.504Z,16
2024-04-26T17:47:06.662Z,14
2024-04-26T17:49:06.714Z,12
2024-04-26T17:51:06.811Z,10
2024-04-26T17:53:06.962Z,9
2024-04-26T17:55:07.006Z,10
2024-04-26T17:57:07.140Z,8
2024-04-26T17:59:07.273Z,12
2024-04-26T18:01:07.439Z,12
2024-04-26T18:03:07.460Z,11
2024-04-26T18:05:07.549Z,18
2024-04-26T18:07:07.603Z,21
2024-04-26T18:09:07.693Z,15
2024-04-26T18:11:07.849Z,16
2024-04-26T18:13:07.888Z,10
2024-04-26T18:15:08.006Z,14
2024-04-26T18:17:08.224Z,10
2024-04-26T18:19:08.220Z,8
2024-04-26T18:21:08.318Z,9
2024-04-26T18:23:08.426Z,12
2024-04-26T18:25:08.476Z,13
2024-04-26T18:27:08.587Z,12
2024-04-26T18:29:08.694Z,10
2024-04-26T18:31:08.786Z,11
2024-04-26T18:33:10.830Z,13
2024-04-26T18:35:08.943Z,15
2024-04-26T18:37:09.042Z,16
2024-04-26T18:39:09.158Z,15
2024-04-26T18:41:09.245Z,17
2024-04-26T18:43:09.346Z,13
2024-04-26T18:45:09.420Z,11
2024-04-26T18:47:09.627Z,12
2024-04-26T18:49:09.579Z,13
2024-04-26T18:51:09.716Z,13
2024-04-26T18:53:09.751Z,11
2024-04-26T18:55:09.843Z,12
2024-04-26T18:57:09.922Z,9
2024-04-26T18:59:10.023Z,8
2024-04-26T19:01:10.142Z,8
2024-04-26T19:03:10.257Z,10
2024-04-26T19:05:10.375Z,10
2024-04-26T19:07:10.371Z,11
2024-04-26T19:09:10.471Z,10
2024-04-26T19:11:10.670Z,18
2024-04-26T19:13:10.589Z,21
2024-04-26T19:15:10.685Z,38
2024-04-26T19:17:10.880Z,23
2024-04-26T19:19:10.872Z,22
2024-04-26T19:21:10.944Z,31
2024-04-26T19:23:11.006Z,43
2024-04-26T19:25:11.107Z,52
2024-04-26T19:27:11.170Z,56
2024-04-26T19:29:41.284Z,53
2024-04-26T19:31:41.492Z,39
2024-04-26T19:33:41.599Z,38
2024-04-26T19:35:41.628Z,25
2024-04-26T19:37:41.752Z,22
2024-04-26T19:39:41.891Z,14
2024-04-26T19:41:41.965Z,12
2024-04-26T19:43:42.100Z,9
2024-04-26T19:45:42.181Z,9
2024-04-26T19:47:42.395Z,9
2024-04-26T19:49:42.832Z,8
2024-04-26T19:51:42.509Z,8
2024-04-26T19:53:42.629Z,9
2024-04-26T19:55:42.753Z,8
2024-04-26T19:57:42.865Z,8
2024-04-26T19:59:42.987Z,7
2024-04-26T20:01:43.176Z,8
2024-04-26T20:03:43.276Z,9
2024-04-26T20:05:43.323Z,13
2024-04-26T20:07:43.511Z,14
2024-04-26T20:09:43.523Z,28
2024-04-26T20:11:43.668Z,23
2024-04-26T20:13:43.749Z,32
2024-04-26T20:15:43.863Z,28
2024-04-26T20:17:44.074Z,22
2024-04-26T20:19:44.138Z,17
2024-04-26T20:21:44.199Z,14
2024-04-26T20:23:44.329Z,16
2024-04-26T20:25:44.461Z,18
2024-04-26T20:27:44.536Z,13
2024-04-26T20:29:44.657Z,12
2024-04-26T20:31:44.867Z,12
2024-04-26T20:33:44.878Z,13
2024-04-26T20:35:44.989Z,9
2024-04-26T20:37:45.114Z,10
2024-04-26T20:39:45.276Z,11
2024-04-26T20:41:45.300Z,7
2024-04-26T20:43:45.410Z,7
2024-04-26T20:45:45.516Z,9
2024-04-26T20:47:45.731Z,7
2024-04-26T20:49:45.760Z,8
2024-04-26T20:51:45.843Z,9
2024-04-26T20:53:45.924Z,6
2024-04-26T20:55:46.147Z,8
2024-04-26T20:57:46.150Z,8
2024-04-26T20:59:46.253Z,9
2024-04-26T21:01:46.436Z,12
2024-04-26T21:03:46.538Z,12
2024-04-26T21:05:46.573Z,11
2024-04-26T21:07:46.711Z,13
2024-04-26T21:09:46.759Z,13
2024-04-26T21:11:46.887Z,11
2024-04-26T21:13:47.027Z,11
2024-04-26T21:15:47.067Z,10
2024-04-26T21:17:47.262Z,12
2024-04-26T21:19:47.307Z,13
2024-04-26T21:21:47.405Z,13
2024-04-26T21:23:47.526Z,16
2024-04-26T21:25:47.615Z,18
2024-04-26T21:27:47.682Z,22
2024-04-26T21:29:47.757Z,24
2024-04-26T21:31:47.867Z,21
2024-04-26T21:33:47.964Z,21
2024-04-26T21:35:48.063Z,18
2024-04-26T21:37:48.195Z,17
2024-04-26T21:39:48.252Z,16
2024-04-26T21:41:48.366Z,16
2024-04-26T21:43:48.540Z,19
2024-04-26T21:45:48.574Z,20
2024-04-26T21:47:48.781Z,20
2024-04-26T21:49:48.799Z,20
2024-04-26T21:51:48.874Z,23
2024-04-26T21:53:48.965Z,21
2024-04-26T21:55:49.079Z,26
2024-04-26T21:57:49.130Z,24
2024-04-26T21:59:49.285Z,24
2024-04-26T22:01:49.483Z,21
2024-04-26T22:03:49.476Z,20
2024-04-26T22:05:49.595Z,22
2024-04-26T22:07:49.662Z,19
2024-04-26T22:09:49.735Z,20
2024-04-26T22:11:49.857Z,19
2024-04-26T22:13:49.991Z,15
2024-04-26T22:15:50.011Z,15
2024-04-26T22:17:50.176Z,16
2024-04-26T22:19:50.236Z,13
2024-04-26T22:21:50.317Z,15
2024-04-26T22:23:50.446Z,13
2024-04-26T22:25:50.551Z,16
2024-04-26T22:27:50.630Z,18
2024-04-26T22:29:50.742Z,12
2024-04-26T22:31:50.898Z,13
2024-04-26T22:33:50.952Z,15
2024-04-26T22:35:50.949Z,14
2024-04-26T22:37:51.103Z,11
2024-04-26T22:39:51.167Z,12
2024-04-26T22:41:51.256Z,8
2024-04-26T22:43:51.367Z,12
2024-04-26T22:45:51.428Z,12
2024-04-26T22:47:51.619Z,9
2024-04-26T22:49:51.729Z,10
2024-04-26T22:51:51.797Z,8
2024-04-26T22:53:51.813Z,8
2024-04-26T22:55:51.952Z,7
2024-04-26T22:57:51.996Z,8
2024-04-26T22:59:52.093Z,9
2024-04-26T23:01:52.274Z,8
2024-04-26T23:03:52.294Z,9
2024-04-26T23:05:52.367Z,7
2024-04-26T23:07:52.480Z,8
2024-04-26T23:09:52.525Z,8
2024-04-26T23:11:52.715Z,8
2024-04-26T23:13:52.713Z,9
2024-04-26T23:15:52.889Z,9
2024-04-26T23:17:52.884Z,9
2024-04-26T23:19:52.988Z,11
2024-04-26T23:21:53.034Z,16
2024-04-26T23:23:53.120Z,14
2024-04-26T23:25:53.206Z,11
2024-04-26T23:27:53.280Z,12
2024-04-26T23:29:53.375Z,17
2024-04-26T23:31:53.508Z,13
2024-04-26T23:33:53.551Z,13
2024-04-26T23:35:53.650Z,17
2024-04-26T23:38:23.775Z,13
2024-04-26T23:40:23.889Z,14
2024-04-26T23:42:24.010Z,15
2024-04-26T23:44:24.134Z,12
2024-04-26T23:46:24.332Z,14
2024-04-26T23:48:24.357Z,13
2024-04-26T23:50:24.464Z,15
2024-04-26T23:52:24.579Z,15
2024-04-26T23:54:24.687Z,13
2024-04-26T23:56:24.803Z,14
2024-04-26T23:58:24.921Z,13
